Time;durP1;ratioP1;P1;durP2;ratioP2;P2;SDS_P1;SDS_P2;PMS_P1;PMS_P2;Temp;Humidity;BMP_temperature;BMP_pressure;BME280_temperature;BME280_humidity;BME280_pressure;Samples;Min_cycle;Max_cycle;Signal;HPM_P1;HPM_P2
2021/10/25 00:01:00;;;;;;;5.60;1.98;;;6.30;99.90;;;;;;5011228;28;20049;-89
2021/10/25 00:03:26;;;;;;;5.32;2.60;;;6.30;99.90;;;;;;5011333;28;20049;-90
2021/10/25 00:05:52;;;;;;;4.35;2.25;;;6.30;99.90;;;;;;5027835;28;20040;-90
2021/10/25 00:08:18;;;;;;;4.60;2.15;;;6.20;99.90;;;;;;5045800;28;20033;-91
2021/10/25 00:10:45;;;;;;;3.47;2.00;;;6.20;99.90;;;;;;5047528;28;20029;-91
2021/10/25 00:13:11;;;;;;;7.38;3.33;;;6.20;99.90;;;;;;5047605;28;20036;-91
2021/10/25 00:15:37;;;;;;;5.28;2.40;;;6.30;99.90;;;;;;5065040;28;20119;-89
2021/10/25 00:18:04;;;;;;;5.10;2.58;;;6.30;99.90;;;;;;5031046;28;20032;-89
2021/10/25 00:20:30;;;;;;;7.55;2.92;;;6.30;99.90;;;;;;5049983;28;20033;-90
2021/10/25 00:22:56;;;;;;;3.28;1.95;;;6.30;99.90;;;;;;5051035;28;20080;-90
2021/10/25 00:25:22;;;;;;;3.83;2.53;;;6.20;99.90;;;;;;5034517;28;20029;-91
2021/10/25 00:27:47;;;;;;;4.90;2.63;;;6.10;99.90;;;;;;5051104;28;20029;-91
2021/10/25 00:30:13;;;;;;;4.60;2.20;;;6.20;99.90;;;;;;5051322;28;20159;-91
2021/10/25 00:32:39;;;;;;;4.40;1.98;;;6.20;99.90;;;;;;5067521;28;20021;-89
2021/10/25 00:35:06;;;;;;;4.40;2.70;;;6.20;99.90;;;;;;5050738;28;20040;-91
2021/10/25 00:37:32;;;;;;;8.38;3.42;;;6.30;99.90;;;;;;5050864;28;20025;-91
2021/10/25 00:39:58;;;;;;;4.68;2.53;;;6.30;99.90;;;;;;5034249;28;20029;-91
2021/10/25 00:42:24;;;;;;;6.32;2.50;;;6.30;99.90;;;;;;5067180;28;20048;-90
2021/10/25 00:44:50;;;;;;;3.42;1.92;;;6.20;99.90;;;;;;5067146;28;20032;-89
2021/10/25 00:47:36;;;;;;;3.97;1.98;;;6.10;99.90;;;;;;5014709;28;20054;-89
2021/10/25 00:50:02;;;;;;;3.63;1.92;;;6.10;99.90;;;;;;5010342;28;20048;-89
2021/10/25 00:52:29;;;;;;;7.25;2.25;;;6.00;99.90;;;;;;4993721;28;20062;-91
2021/10/25 00:54:55;;;;;;;3.85;2.33;;;6.10;99.90;;;;;;5001871;28;20034;-89
2021/10/25 00:57:21;;;;;;;4.80;2.55;;;6.20;99.90;;;;;;4990340;28;20137;-90
2021/10/25 00:59:47;;;;;;;4.70;2.47;;;6.20;99.90;;;;;;4990572;28;20085;-91
2021/10/25 01:02:13;;;;;;;5.45;2.55;;;6.10;99.90;;;;;;4974203;28;20507;-91
2021/10/25 01:04:38;;;;;;;4.43;2.08;;;6.10;99.90;;;;;;4974184;28;20065;-91
2021/10/25 01:07:04;;;;;;;4.60;1.65;;;6.10;99.90;;;;;;4998313;28;20060;-90
2021/10/25 01:09:31;;;;;;;3.80;2.35;;;6.00;99.90;;;;;;5009786;28;20030;-90
2021/10/25 01:11:57;;;;;;;5.47;2.30;;;6.20;99.90;;;;;;5009643;28;20074;-89
2021/10/25 01:14:22;;;;;;;5.47;2.58;;;6.20;99.90;;;;;;5009530;28;20038;-87
2021/10/25 01:16:48;;;;;;;5.72;2.85;;;6.20;99.90;;;;;;5025791;28;20045;-91
2021/10/25 01:19:15;;;;;;;6.30;2.80;;;6.20;99.90;;;;;;4994015;28;20041;-90
2021/10/25 01:21:41;;;;;;;5.90;2.60;;;6.10;99.90;;;;;;5010890;28;20048;-91
2021/10/25 01:24:07;;;;;;;5.85;2.88;;;6.10;99.90;;;;;;5032986;28;20080;-90
2021/10/25 01:26:33;;;;;;;5.05;2.53;;;6.10;99.90;;;;;;5014850;28;20440;-90
2021/10/25 01:28:59;;;;;;;4.43;2.80;;;6.10;99.90;;;;;;5030342;28;20041;-90
2021/10/25 01:31:25;;;;;;;3.35;1.83;;;6.10;99.90;;;;;;5029887;28;20051;-91
2021/10/25 01:33:51;;;;;;;3.08;1.98;;;6.10;99.90;;;;;;5029902;28;20519;-90
2021/10/25 01:36:19;;;;;;;4.60;2.47;;;6.00;99.90;;;;;;5030203;28;20060;-92
2021/10/25 01:38:45;;;;;;;4.65;2.80;;;6.10;99.90;;;;;;5029821;28;20033;-91
2021/10/25 01:41:14;;;;;;;5.38;2.65;;;6.10;99.90;;;;;;5014099;28;20056;-91
2021/10/25 01:43:40;;;;;;;5.05;2.53;;;6.10;99.90;;;;;;5029840;28;20038;-92
2021/10/25 01:46:06;;;;;;;5.45;2.53;;;6.10;99.90;;;;;;5029586;28;20067;-90
2021/10/25 01:48:33;;;;;;;5.68;2.45;;;6.10;99.90;;;;;;5029967;28;20060;-91
2021/10/25 01:50:59;;;;;;;3.80;2.28;;;6.10;99.90;;;;;;5029964;28;20021;-91
2021/10/25 01:53:25;;;;;;;4.22;2.38;;;6.10;99.90;;;;;;5013517;28;20032;-91
2021/10/25 01:55:55;;;;;;;3.22;1.73;;;6.10;99.90;;;;;;4997984;28;20040;-88
2021/10/25 01:58:21;;;;;;;3.33;1.90;;;6.10;99.90;;;;;;4993655;28;20022;-90
2021/10/25 02:00:47;;;;;;;4.45;2.70;;;6.00;99.90;;;;;;4993655;28;20060;-90
2021/10/25 02:03:13;;;;;;;4.72;2.47;;;6.00;99.90;;;;;;4993625;28;20042;-90
2021/10/25 02:06:02;;;;;;;5.35;2.17;;;6.10;99.90;;;;;;5027357;28;20401;-88
2021/10/25 02:08:27;;;;;;;3.83;2.33;;;6.00;99.90;;;;;;5012444;28;20030;-90
2021/10/25 02:10:58;;;;;;;5.25;2.05;;;6.00;99.90;;;;;;5013806;28;20116;-91
2021/10/25 02:13:23;;;;;;;3.58;1.95;;;6.00;99.90;;;;;;5029136;28;20034;-90
2021/10/25 02:15:50;;;;;;;3.78;1.65;;;6.00;99.90;;;;;;5029294;28;20083;-89
2021/10/25 02:18:20;;;;;;;3.67;1.92;;;5.90;99.90;;;;;;5029963;28;20040;-89
2021/10/25 02:20:46;;;;;;;5.30;2.00;;;5.90;99.90;;;;;;5029241;28;20105;-92
2021/10/25 02:23:18;;;;;;;7.15;1.98;;;5.90;99.90;;;;;;5013667;28;20037;-89
2021/10/25 02:25:48;;;;;;;4.25;2.30;;;5.90;99.90;;;;;;5012766;28;20048;-91
2021/10/25 02:28:17;;;;;;;3.05;1.35;;;6.00;99.90;;;;;;5013242;28;20037;-91
2021/10/25 02:30:48;;;;;;;4.40;2.55;;;6.00;99.90;;;;;;5013502;28;20029;-90
2021/10/25 02:33:14;;;;;;;4.10;2.20;;;6.10;99.90;;;;;;5046626;28;20048;-91
2021/10/25 02:35:40;;;;;;;4.18;1.67;;;6.10;99.90;;;;;;5012277;28;20025;-91
2021/10/25 02:38:06;;;;;;;4.60;2.55;;;6.20;99.90;;;;;;5012517;28;20029;-90
2021/10/25 02:40:33;;;;;;;3.22;1.88;;;6.30;99.90;;;;;;5012932;28;20022;-91
2021/10/25 02:43:00;;;;;;;4.25;1.88;;;6.40;99.90;;;;;;5011643;28;20068;-91
2021/10/25 02:45:26;;;;;;;4.28;1.88;;;6.40;99.90;;;;;;5028657;28;20124;-86
2021/10/25 02:47:52;;;;;;;5.60;2.15;;;6.50;99.90;;;;;;5044308;28;20124;-90
2021/10/25 02:50:18;;;;;;;3.85;1.77;;;6.50;99.90;;;;;;5048223;28;20063;-91
2021/10/25 02:52:44;;;;;;;4.68;2.10;;;6.60;99.90;;;;;;5031946;28;20088;-91
2021/10/25 02:55:11;;;;;;;3.67;1.77;;;6.70;99.90;;;;;;5021820;28;20025;-92
2021/10/25 02:57:37;;;;;;;6.47;2.53;;;6.80;99.90;;;;;;5011964;28;20026;-91
2021/10/25 03:00:09;;;;;;;4.32;2.25;;;6.80;99.90;;;;;;5011998;28;20044;-93
2021/10/25 03:02:36;;;;;;;4.72;2.10;;;6.90;99.90;;;;;;5012066;28;20052;-90
2021/10/25 03:05:04;;;;;;;5.47;2.50;;;6.90;99.90;;;;;;5028443;28;20116;-92
2021/10/25 03:07:29;;;;;;;2.60;1.50;;;6.90;99.90;;;;;;5023580;28;20035;-89
2021/10/25 03:09:57;;;;;;;3.88;2.53;;;6.90;99.90;;;;;;5031912;28;20087;-91
2021/10/25 03:12:23;;;;;;;5.65;2.80;;;7.00;99.90;;;;;;5048461;28;20025;-91
2021/10/25 03:14:53;;;;;;;5.57;2.45;;;7.10;99.90;;;;;;5032028;28;20100;-92
2021/10/25 03:17:18;;;;;;;4.75;2.35;;;7.10;99.90;;;;;;5031814;28;20485;-90
2021/10/25 03:19:57;;;;;;;5.30;2.58;;;7.10;99.90;;;;;;5034419;28;20051;-93
2021/10/25 03:22:23;;;;;;;4.13;1.90;;;7.20;99.90;;;;;;5031477;28;20037;-92
2021/10/25 03:24:48;;;;;;;4.38;2.28;;;7.20;99.90;;;;;;5031315;28;20035;-92
2021/10/25 03:27:14;;;;;;;4.93;2.40;;;7.20;99.90;;;;;;5031512;28;20089;-91
2021/10/25 03:29:40;;;;;;;5.43;2.40;;;7.20;99.90;;;;;;5031473;28;20037;-92
2021/10/25 03:32:06;;;;;;;3.45;1.83;;;7.30;99.90;;;;;;5031653;28;20443;-91
2021/10/25 03:34:32;;;;;;;4.22;1.70;;;7.30;99.90;;;;;;5047835;28;20040;-91
2021/10/25 03:36:58;;;;;;;4.45;1.90;;;7.30;99.90;;;;;;5047622;28;20059;-92
2021/10/25 03:39:28;;;;;;;5.20;2.08;;;7.30;99.90;;;;;;5047971;28;20092;-92
2021/10/25 03:41:56;;;;;;;4.85;2.20;;;7.30;99.90;;;;;;5031283;28;20033;-94
2021/10/25 03:46:58;;;;;;;4.88;2.28;;;7.30;99.90;;;;;;5047462;28;20060;-92
2021/10/25 03:49:45;;;;;;;3.65;1.70;;;7.30;99.90;;;;;;5047833;28;20071;-92
2021/10/25 03:55:34;;;;;;;4.30;2.13;;;7.40;99.90;;;;;;5058069;28;20040;-92
2021/10/25 04:00:42;;;;;;;3.45;1.67;;;7.40;99.90;;;;;;5031965;28;20030;-93
2021/10/25 04:03:27;;;;;;;5.45;2.22;;;7.50;99.90;;;;;;5031724;28;20049;-92
2021/10/25 04:25:56;;;;;;;4.28;2.15;;;7.60;99.90;;;;;;5031346;28;20064;-93
2021/10/25 04:28:24;;;;;;;4.93;1.90;;;7.60;99.90;;;;;;5014899;28;20030;-92
2021/10/25 04:30:55;;;;;;;4.28;1.80;;;7.60;99.90;;;;;;5031152;28;20045;-93
2021/10/25 04:33:22;;;;;;;4.82;2.08;;;7.60;99.90;;;;;;5031457;28;20022;-91
2021/10/25 04:36:02;;;;;;;5.28;1.52;;;7.60;99.90;;;;;;5031196;28;20030;-87
2021/10/25 04:38:36;;;;;;;6.03;1.40;;;7.60;99.90;;;;;;5047613;28;20157;-87
2021/10/25 04:41:02;;;;;;;5.60;2.10;;;7.60;99.90;;;;;;5025695;28;20045;-88
2021/10/25 04:43:28;;;;;;;3.38;1.27;;;7.70;99.90;;;;;;5033966;28;20036;-88
2021/10/25 04:45:54;;;;;;;4.13;1.98;;;7.70;99.90;;;;;;5050551;28;20025;-87
2021/10/25 04:48:20;;;;;;;5.20;2.80;;;7.70;99.90;;;;;;5034230;28;20057;-87
2021/10/25 04:51:03;;;;;;;3.83;2.38;;;7.70;99.90;;;;;;5036496;28;20029;-87
2021/10/25 04:53:41;;;;;;;4.57;1.90;;;7.70;99.90;;;;;;5035769;28;20111;-87
2021/10/25 04:56:06;;;;;;;3.40;2.08;;;7.80;99.90;;;;;;5031921;28;20036;-87
2021/10/25 04:58:32;;;;;;;3.00;1.52;;;7.80;99.90;;;;;;5047956;28;20079;-88
2021/10/25 05:00:58;;;;;;;3.25;1.45;;;7.80;99.90;;;;;;5014021;28;20469;-87
2021/10/25 05:03:23;;;;;;;3.78;1.42;;;7.80;99.90;;;;;;5030347;28;20045;-87
2021/10/25 05:05:49;;;;;;;4.03;1.98;;;7.80;99.90;;;;;;5013434;28;20040;-88
2021/10/25 05:08:15;;;;;;;3.50;1.55;;;7.80;99.90;;;;;;5031896;28;20101;-88
2021/10/25 05:10:40;;;;;;;4.93;1.83;;;7.80;99.90;;;;;;5049674;28;20036;-88
2021/10/25 05:13:07;;;;;;;3.40;1.83;;;7.80;99.90;;;;;;5033946;28;20112;-88
2021/10/25 05:15:33;;;;;;;3.63;1.80;;;7.80;99.90;;;;;;5033526;28;20040;-88
2021/10/25 05:17:59;;;;;;;3.97;1.77;;;7.90;99.90;;;;;;5033530;28;20040;-87
2021/10/25 05:20:25;;;;;;;4.38;1.88;;;7.90;99.90;;;;;;5050096;28;20028;-87
2021/10/25 05:22:51;;;;;;;3.58;2.00;;;7.80;99.90;;;;;;5033371;28;20037;-88
2021/10/25 05:25:17;;;;;;;3.60;1.80;;;7.90;99.90;;;;;;5032754;28;20036;-87
2021/10/25 05:27:43;;;;;;;5.15;2.13;;;7.90;99.90;;;;;;5050425;28;20036;-88
2021/10/25 05:30:09;;;;;;;3.40;1.92;;;7.90;99.90;;;;;;5050243;28;20039;-88
2021/10/25 05:32:35;;;;;;;6.68;2.20;;;7.90;99.90;;;;;;5033442;28;20039;-88
2021/10/25 05:35:03;;;;;;;4.97;2.22;;;7.90;99.90;;;;;;5033462;28;20067;-87
2021/10/25 05:37:32;;;;;;;7.45;1.95;;;7.90;99.90;;;;;;5033077;28;20548;-86
2021/10/25 05:39:58;;;;;;;4.05;1.77;;;7.90;99.90;;;;;;5049572;28;20409;-86
2021/10/25 05:42:32;;;;;;;3.50;2.30;;;7.90;99.90;;;;;;5034329;28;20156;-86
2021/10/25 05:45:19;;;;;;;3.38;1.45;;;7.90;99.90;;;;;;5032965;28;20065;-86
2021/10/25 05:47:47;;;;;;;4.60;1.60;;;8.00;99.90;;;;;;4972992;28;20043;-86
2021/10/25 05:50:13;;;;;;;4.57;1.77;;;8.00;99.90;;;;;;4973203;28;20145;-85
2021/10/25 05:52:39;;;;;;;5.15;1.83;;;8.00;99.90;;;;;;4972900;28;20030;-87
2021/10/25 05:55:06;;;;;;;6.80;2.20;;;8.00;99.90;;;;;;4975945;28;20474;-86
2021/10/25 05:57:32;;;;;;;4.57;1.83;;;8.00;99.90;;;;;;4969647;28;20030;-87
2021/10/25 05:59:59;;;;;;;4.07;1.92;;;8.00;99.90;;;;;;4969821;28;20050;-86
2021/10/25 06:02:28;;;;;;;5.10;2.17;;;8.00;99.90;;;;;;4969528;28;20571;-87
2021/10/25 06:05:08;;;;;;;3.13;1.60;;;8.00;99.90;;;;;;4971705;28;20038;-86
2021/10/25 06:07:40;;;;;;;3.47;1.55;;;8.10;99.90;;;;;;4963587;28;20059;-85
2021/10/25 06:10:06;;;;;;;4.53;2.05;;;8.10;99.90;;;;;;5002444;28;20256;-87
2021/10/25 06:12:43;;;;;;;2.33;1.30;;;8.00;99.90;;;;;;4964757;28;20031;-86
2021/10/25 06:15:38;;;;;;;4.25;1.40;;;8.10;99.90;;;;;;4985392;28;20026;-87
2021/10/25 06:18:07;;;;;;;2.60;1.70;;;8.10;99.90;;;;;;4971159;28;20031;-86
2021/10/25 06:20:35;;;;;;;3.60;1.58;;;8.10;99.90;;;;;;4988421;28;20031;-85
2021/10/25 06:23:07;;;;;;;3.42;1.30;;;8.10;99.90;;;;;;4980223;28;20141;-87
2021/10/25 06:25:37;;;;;;;4.15;1.95;;;8.10;99.90;;;;;;5029888;28;20095;-86
2021/10/25 06:28:14;;;;;;;2.78;1.40;;;8.20;99.90;;;;;;5024295;28;20040;-86
2021/10/25 06:31:01;;;;;;;2.33;1.17;;;8.10;99.90;;;;;;5025777;28;20087;-87
2021/10/25 06:34:24;;;;;;;5.78;1.50;;;8.10;99.90;;;;;;5042825;28;20028;-86
2021/10/25 06:37:09;;;;;;;3.47;1.48;;;8.20;99.90;;;;;;5038294;28;20022;-87
2021/10/25 06:39:54;;;;;;;4.78;1.58;;;8.20;99.90;;;;;;5024726;28;20043;-87
2021/10/25 06:42:19;;;;;;;3.60;1.65;;;8.20;99.90;;;;;;5041818;28;20060;-86
2021/10/25 06:45:26;;;;;;;3.38;1.38;;;8.20;99.90;;;;;;5032714;28;20041;-87
2021/10/25 06:47:53;;;;;;;5.07;1.88;;;8.20;99.90;;;;;;4969655;28;20566;-86
2021/10/25 06:50:22;;;;;;;3.70;1.48;;;8.20;99.90;;;;;;4995893;28;20038;-87
2021/10/25 06:52:59;;;;;;;3.50;2.20;;;8.20;99.90;;;;;;4992662;28;20073;-86
2021/10/25 06:55:25;;;;;;;3.97;1.70;;;8.20;99.90;;;;;;4968315;28;20098;-86
2021/10/25 06:57:58;;;;;;;4.80;1.35;;;8.30;99.90;;;;;;4969726;28;20133;-86
2021/10/25 07:00:28;;;;;;;4.35;2.17;;;8.30;99.90;;;;;;4971622;28;20062;-86
2021/10/25 07:02:53;;;;;;;5.30;1.75;;;8.30;99.90;;;;;;4986789;28;20109;-86
2021/10/25 07:05:22;;;;;;;5.85;1.58;;;8.30;99.90;;;;;;5000891;28;20134;-87
2021/10/25 07:07:48;;;;;;;3.55;1.55;;;8.40;99.90;;;;;;4986784;28;20058;-86
2021/10/25 07:10:13;;;;;;;3.13;1.50;;;8.40;99.90;;;;;;4970813;28;20038;-86
2021/10/25 07:12:45;;;;;;;2.53;1.60;;;8.50;99.90;;;;;;4971488;28;20065;-87
2021/10/25 07:15:12;;;;;;;4.20;1.55;;;8.50;99.90;;;;;;4985340;28;20029;-88
2021/10/25 07:17:43;;;;;;;5.53;2.13;;;8.50;99.90;;;;;;4971081;28;20042;-87
2021/10/25 07:20:29;;;;;;;4.00;1.52;;;8.60;99.90;;;;;;4986913;28;20022;-86
2021/10/25 07:23:23;;;;;;;2.50;1.42;;;8.70;99.90;;;;;;4970890;28;20034;-86
2021/10/25 07:26:41;;;;;;;2.35;1.20;;;8.70;99.90;;;;;;5035356;28;20041;-86
2021/10/25 08:03:19;;;;;;;3.40;1.50;;;9.10;99.90;;;;;;5066561;28;20033;-86
2021/10/25 08:05:59;;;;;;;6.68;1.85;;;9.20;99.90;;;;;;5047232;28;20033;-86
2021/10/25 08:11:04;;;;;;;4.68;1.92;;;9.20;99.90;;;;;;5047237;28;20498;-87
2021/10/25 08:13:36;;;;;;;4.30;1.75;;;9.20;99.90;;;;;;5044496;28;20037;-87
2021/10/25 08:16:10;;;;;;;3.13;1.33;;;9.20;99.90;;;;;;5041555;28;20049;-87
2021/10/25 08:18:41;;;;;;;4.93;1.50;;;9.20;99.90;;;;;;5023579;28;20035;-86
2021/10/25 08:21:09;;;;;;;3.72;1.90;;;9.20;99.90;;;;;;5022377;28;20033;-87
2021/10/25 08:23:35;;;;;;;3.67;1.73;;;9.20;99.90;;;;;;5020761;28;20125;-87
2021/10/25 08:26:12;;;;;;;6.07;2.25;;;9.20;99.90;;;;;;5018522;28;20037;-87
2021/10/25 08:28:39;;;;;;;3.65;1.83;;;9.30;99.90;;;;;;5017326;28;20033;-87
2021/10/25 08:31:08;;;;;;;4.53;1.73;;;9.40;99.90;;;;;;5035254;28;20052;-88
2021/10/25 08:42:04;;;;;;;3.55;1.05;;;9.80;99.90;;;;;;5049948;28;20029;-87
2021/10/25 08:44:30;;;;;;;3.20;1.52;;;9.90;99.90;;;;;;5033788;28;20045;-87
2021/10/25 08:46:58;;;;;;;3.95;1.48;;;9.90;99.90;;;;;;5033469;28;20052;-86
2021/10/25 08:49:24;;;;;;;4.55;1.90;;;9.90;99.90;;;;;;5049916;28;20024;-87
2021/10/25 08:51:50;;;;;;;5.53;1.50;;;9.80;99.90;;;;;;5033308;28;20036;-87
2021/10/25 08:54:20;;;;;;;3.88;1.60;;;9.80;99.90;;;;;;5033962;28;20083;-87
2021/10/25 08:56:46;;;;;;;2.80;1.55;;;9.90;99.90;;;;;;5033538;28;20514;-86
2021/10/25 08:59:13;;;;;;;3.95;2.08;;;9.80;99.90;;;;;;5033786;28;20036;-87
2021/10/25 09:01:40;;;;;;;3.30;1.38;;;9.90;99.90;;;;;;5033444;28;20025;-87
2021/10/25 09:04:19;;;;;;;2.92;1.45;;;9.90;99.90;;;;;;5034692;28;20045;-87
2021/10/25 09:06:57;;;;;;;5.20;1.65;;;9.90;99.90;;;;;;5033990;28;20055;-87
2021/10/25 09:09:29;;;;;;;3.58;1.92;;;9.80;99.90;;;;;;5049883;28;20056;-88
2021/10/25 09:12:05;;;;;;;4.25;1.75;;;9.80;99.90;;;;;;5049750;28;20033;-86
2021/10/25 09:14:42;;;;;;;3.80;1.38;;;9.80;99.90;;;;;;5034570;28;20073;-86
2021/10/25 09:17:09;;;;;;;3.15;1.30;;;9.80;99.90;;;;;;5049210;28;20021;-87
2021/10/25 09:19:45;;;;;;;5.25;2.25;;;9.70;99.90;;;;;;5033761;28;20033;-87
2021/10/25 09:22:15;;;;;;;7.97;2.00;;;9.70;99.90;;;;;;5032914;28;20025;-87
2021/10/25 09:24:50;;;;;;;3.30;1.48;;;9.80;99.90;;;;;;5033176;28;20024;-87
2021/10/25 09:27:38;;;;;;;3.65;1.75;;;9.80;99.90;;;;;;5065806;28;20029;-87
2021/10/25 09:30:16;;;;;;;4.38;1.50;;;9.70;99.90;;;;;;5033109;28;20060;-88
2021/10/25 09:32:46;;;;;;;2.70;1.30;;;9.70;99.90;;;;;;5029385;28;20041;-87
2021/10/25 09:35:42;;;;;;;6.53;2.08;;;9.80;99.90;;;;;;5046052;28;20037;-87
2021/10/25 09:38:27;;;;;;;3.17;1.40;;;9.80;99.90;;;;;;5046151;28;20037;-87
2021/10/25 09:49:08;;;;;;;4.10;1.80;;;10.00;99.90;;;;;;5046350;28;20041;-87
2021/10/25 09:51:41;;;;;;;4.82;1.42;;;10.00;99.90;;;;;;5045543;28;20096;-87
2021/10/25 09:54:11;;;;;;;3.75;1.40;;;10.00;99.90;;;;;;5046945;28;20029;-86
2021/10/25 09:56:45;;;;;;;4.45;1.90;;;10.10;99.90;;;;;;5032174;28;20029;-86
2021/10/25 09:59:59;;;;;;;3.75;1.70;;;10.10;99.90;;;;;;5051517;28;20139;-86
2021/10/25 10:02:40;;;;;;;4.75;1.20;;;10.10;99.90;;;;;;5046237;28;20481;-87
2021/10/25 10:05:08;;;;;;;3.85;1.33;;;10.20;99.90;;;;;;5032403;28;20102;-87
2021/10/25 10:07:36;;;;;;;2.90;1.27;;;10.20;99.90;;;;;;5032296;28;20439;-87
2021/10/25 10:10:17;;;;;;;3.28;1.60;;;10.30;99.90;;;;;;5033306;28;20085;-86
2021/10/25 10:12:51;;;;;;;3.17;1.13;;;10.40;99.90;;;;;;5032676;28;20096;-87
2021/10/25 10:15:21;;;;;;;3.55;1.48;;;10.40;99.90;;;;;;5032197;28;20368;-87
2021/10/25 10:17:53;;;;;;;2.88;1.33;;;10.40;99.90;;;;;;5032270;28;20044;-87
2021/10/25 10:20:32;;;;;;;2.50;1.40;;;10.40;99.90;;;;;;5032109;28;20083;-87
2021/10/25 10:23:02;;;;;;;4.18;1.42;;;10.40;99.90;;;;;;5031698;28;20033;-87
2021/10/25 10:25:35;;;;;;;4.22;1.35;;;10.40;99.90;;;;;;5032717;28;20033;-87
2021/10/25 10:28:10;;;;;;;5.47;1.48;;;10.40;99.90;;;;;;5031969;28;20035;-87
2021/10/25 10:30:52;;;;;;;3.72;1.60;;;10.40;99.90;;;;;;5031694;28;20120;-86
2021/10/25 10:33:33;;;;;;;3.50;1.70;;;10.40;99.90;;;;;;5028249;28;20036;-87
2021/10/25 10:36:17;;;;;;;3.92;1.67;;;10.40;99.90;;;;;;5028297;28;20025;-87
2021/10/25 10:38:59;;;;;;;2.17;1.10;;;10.40;99.90;;;;;;5028115;28;20048;-87
2021/10/25 10:41:57;;;;;;;2.47;1.05;;;10.40;99.90;;;;;;4991899;28;20042;-87
2021/10/25 10:44:32;;;;;;;2.55;1.02;;;10.50;99.90;;;;;;5028062;28;20071;-87
2021/10/25 10:47:11;;;;;;;3.85;1.60;;;10.60;99.90;;;;;;5027748;28;20081;-86
2021/10/25 10:49:41;;;;;;;3.70;1.70;;;10.60;99.90;;;;;;5027980;28;20029;-85
2021/10/25 10:52:39;;;;;;;5.00;1.50;;;10.80;99.90;;;;;;5044297;28;20092;-86
2021/10/25 10:55:19;;;;;;;5.80;1.80;;;10.70;99.90;;;;;;5037092;28;20045;-86
2021/10/25 11:00:40;;;;;;;3.78;1.95;;;11.00;99.90;;;;;;5047780;28;20037;-86
2021/10/25 11:03:09;;;;;;;3.50;1.90;;;11.10;99.90;;;;;;5030513;28;20037;-87
2021/10/25 11:05:41;;;;;;;4.70;2.30;;;11.20;99.90;;;;;;5029188;28;20049;-87
2021/10/25 11:08:17;;;;;;;3.88;2.42;;;11.30;99.90;;;;;;5030953;28;20100;-87
2021/10/25 11:10:45;;;;;;;3.92;1.95;;;11.30;99.90;;;;;;5030898;28;20037;-89
2021/10/25 11:13:19;;;;;;;5.43;1.95;;;11.30;99.90;;;;;;5030964;28;20055;-85
2021/10/25 11:16:22;;;;;;;3.03;1.15;;;11.40;99.90;;;;;;5030690;28;20069;-87
2021/10/25 11:18:51;;;;;;;3.03;1.10;;;11.40;99.90;;;;;;5047427;28;20423;-87
2021/10/25 11:21:30;;;;;;;2.13;1.10;;;11.50;99.90;;;;;;5030504;28;20040;-89
2021/10/25 11:24:00;;;;;;;2.75;1.67;;;11.60;99.90;;;;;;5030473;28;20039;-87
2021/10/25 11:26:36;;;;;;;3.80;1.58;;;11.70;99.90;;;;;;5030503;28;20113;-88
2021/10/25 11:29:12;;;;;;;3.80;1.42;;;11.80;99.90;;;;;;5047241;28;20041;-87
2021/10/25 11:31:50;;;;;;;2.92;1.27;;;11.90;99.90;;;;;;5027502;28;20041;-87
2021/10/25 11:34:21;;;;;;;4.53;1.27;;;11.90;99.90;;;;;;5027691;28;20033;-87
2021/10/25 11:36:55;;;;;;;6.05;1.55;;;11.90;99.90;;;;;;5027236;28;20033;-87
2021/10/25 11:39:52;;;;;;;4.15;1.77;;;11.80;99.90;;;;;;5044000;28;20389;-87
2021/10/25 11:42:20;;;;;;;5.43;1.45;;;11.80;99.90;;;;;;5043678;28;20072;-88
2021/10/25 11:44:48;;;;;;;2.80;1.13;;;11.90;99.90;;;;;;5027298;28;20056;-88
2021/10/25 11:47:32;;;;;;;3.60;1.42;;;12.00;99.90;;;;;;5043460;28;20045;-87
2021/10/25 11:50:10;;;;;;;3.72;1.70;;;12.10;99.90;;;;;;5043794;28;20063;-86
2021/10/25 11:52:47;;;;;;;5.22;1.60;;;12.20;99.90;;;;;;5027059;28;20037;-87
2021/10/25 11:55:15;;;;;;;7.07;1.58;;;12.20;99.90;;;;;;5030372;28;20066;-85
2021/10/25 11:57:56;;;;;;;4.55;1.70;;;12.20;99.90;;;;;;5030659;28;20090;-87
2021/10/25 12:00:27;;;;;;;2.30;1.42;;;12.10;99.90;;;;;;5030605;28;20033;-86
2021/10/25 12:03:14;;;;;;;2.80;1.50;;;12.10;99.90;;;;;;5046658;28;20063;-86
2021/10/25 12:05:41;;;;;;;4.50;2.13;;;12.10;99.90;;;;;;5030668;28;20029;-87
2021/10/25 12:08:11;;;;;;;4.60;1.80;;;12.20;99.90;;;;;;5030100;28;20041;-86
2021/10/25 12:10:38;;;;;;;6.25;1.25;;;12.20;99.90;;;;;;5030398;28;20035;-87
2021/10/25 12:13:06;;;;;;;2.85;0.93;;;12.30;99.90;;;;;;5029804;28;20025;-87
2021/10/25 12:15:36;;;;;;;2.42;1.23;;;12.30;99.90;;;;;;5030635;28;20032;-86
2021/10/25 12:18:05;;;;;;;5.18;1.60;;;12.40;99.90;;;;;;5034031;28;20353;-87
2021/10/25 12:20:37;;;;;;;4.28;1.58;;;12.20;99.90;;;;;;5034951;28;20396;-87
2021/10/25 12:23:15;;;;;;;3.45;1.58;;;12.30;99.90;;;;;;5034196;28;20063;-87
2021/10/25 12:25:41;;;;;;;4.22;1.75;;;12.30;99.90;;;;;;5034376;28;20029;-86
2021/10/25 12:28:12;;;;;;;5.45;1.27;;;12.40;99.90;;;;;;5033547;28;20039;-86
2021/10/25 12:30:38;;;;;;;3.83;1.50;;;12.40;99.90;;;;;;5050534;28;20097;-86
2021/10/25 12:33:04;;;;;;;2.40;1.48;;;12.30;99.90;;;;;;5030240;28;20544;-86
2021/10/25 12:35:34;;;;;;;4.40;1.00;;;12.40;99.90;;;;;;5047115;28;20064;-86
2021/10/25 12:38:04;;;;;;;;;;;12.50;99.90;;;;;;5030853;28;20037;-85
2021/10/25 12:40:37;;;;;;;3.15;1.42;;;12.60;99.90;;;;;;5030458;28;19928;-86
2021/10/25 12:43:03;;;;;;;2.67;1.00;;;12.60;99.90;;;;;;5030222;28;20042;-87
2021/10/25 12:45:39;;;;;;;3.50;0.90;;;12.70;99.90;;;;;;5030537;28;20089;-92
2021/10/25 12:48:06;;;;;;;2.08;0.93;;;12.70;99.90;;;;;;5029970;28;20053;-88
2021/10/25 12:50:35;;;;;;;4.30;1.63;;;12.70;99.90;;;;;;5030319;28;20057;-86
2021/10/25 12:53:05;;;;;;;2.30;1.17;;;12.60;99.90;;;;;;5046517;28;20124;-87
2021/10/25 12:55:31;;;;;;;3.25;1.27;;;12.70;99.90;;;;;;5033525;28;20028;-86
2021/10/25 12:57:57;;;;;;;4.35;1.27;;;12.70;99.90;;;;;;5049693;28;20037;-87
2021/10/25 13:00:24;;;;;;;2.47;1.20;;;12.70;99.90;;;;;;5050142;28;20028;-87
2021/10/25 13:02:53;;;;;;;3.08;1.00;;;12.70;99.90;;;;;;5049535;28;20033;-86
2021/10/25 13:05:26;;;;;;;3.00;1.45;;;12.80;99.90;;;;;;5049719;28;20446;-87
2021/10/25 13:07:57;;;;;;;3.22;1.88;;;12.70;99.90;;;;;;5049771;28;20025;-86
2021/10/25 13:10:26;;;;;;;4.18;1.95;;;12.70;99.90;;;;;;5049849;28;20040;-87
2021/10/25 13:12:52;;;;;;;5.60;1.90;;;12.80;99.90;;;;;;5049338;28;20040;-87
2021/10/25 13:15:20;;;;;;;2.83;1.55;;;12.80;99.90;;;;;;5049472;28;20123;-87
2021/10/25 13:17:46;;;;;;;4.30;1.13;;;12.80;99.90;;;;;;5049536;28;20033;-88
2021/10/25 13:20:17;;;;;;;2.95;1.42;;;12.70;99.90;;;;;;5049687;28;20124;-87
2021/10/25 13:22:43;;;;;;;3.42;1.30;;;12.80;99.90;;;;;;5032717;28;20067;-87
2021/10/25 13:25:08;;;;;;;3.50;1.23;;;13.00;99.90;;;;;;5049383;28;20093;-86
2021/10/25 13:27:35;;;;;;;4.78;1.67;;;13.20;99.90;;;;;;5048670;28;20037;-87
2021/10/25 13:30:03;;;;;;;2.80;1.38;;;13.00;99.90;;;;;;5049263;28;20025;-87
2021/10/25 13:32:29;;;;;;;2.47;0.90;;;13.00;99.90;;;;;;5036240;28;20037;-87
2021/10/25 13:34:55;;;;;;;3.35;1.35;;;12.90;99.90;;;;;;5013107;28;20129;-87
2021/10/25 13:37:20;;;;;;;3.97;1.48;;;12.90;99.90;;;;;;5013064;28;20473;-87
2021/10/25 13:39:46;;;;;;;2.63;1.50;;;12.90;99.90;;;;;;5013093;28;20071;-87
2021/10/25 13:42:12;;;;;;;3.30;1.67;;;13.00;99.90;;;;;;5012634;28;20033;-87
2021/10/25 13:44:38;;;;;;;3.60;1.48;;;13.00;99.90;;;;;;5012884;28;20474;-86
2021/10/25 13:47:04;;;;;;;3.00;1.13;;;12.90;99.90;;;;;;5012453;28;20049;-87
2021/10/25 13:49:30;;;;;;;5.28;1.70;;;13.00;99.90;;;;;;5029151;28;20034;-86
2021/10/25 13:51:55;;;;;;;3.90;1.45;;;13.00;99.90;;;;;;5012488;28;20025;-86
2021/10/25 13:54:21;;;;;;;4.20;1.52;;;13.00;99.90;;;;;;5015923;28;20017;-87
2021/10/25 13:56:46;;;;;;;3.25;1.60;;;13.10;99.90;;;;;;5048856;28;20033;-87
2021/10/25 13:59:13;;;;;;;3.88;1.55;;;13.10;99.90;;;;;;5048769;28;20092;-88
2021/10/25 14:01:39;;;;;;;4.03;1.48;;;13.10;99.90;;;;;;5048810;28;20029;-87
2021/10/25 14:04:06;;;;;;;3.38;2.03;;;12.90;99.90;;;;;;5048855;28;20052;-88
2021/10/25 14:06:33;;;;;;;4.53;1.42;;;12.80;99.90;;;;;;5049547;28;20029;-87
2021/10/25 14:08:59;;;;;;;2.50;1.15;;;12.80;99.90;;;;;;5032057;28;20033;-86
2021/10/25 14:11:28;;;;;;;5.22;1.95;;;12.90;99.90;;;;;;5048818;28;20033;-86
2021/10/25 14:16:48;;;;;;;2.47;1.33;;;12.70;99.90;;;;;;5048462;28;20397;-86
2021/10/25 14:19:14;;;;;;;4.10;1.85;;;12.70;99.90;;;;;;5048412;28;20037;-86
2021/10/25 14:21:40;;;;;;;2.63;1.35;;;12.70;99.90;;;;;;5048254;28;20035;-87
2021/10/25 14:24:10;;;;;;;3.97;1.20;;;12.60;99.90;;;;;;5048240;28;20043;-86
2021/10/25 14:26:37;;;;;;;3.25;1.30;;;12.60;99.90;;;;;;5031620;28;20105;-86
2021/10/25 14:29:04;;;;;;;3.72;1.55;;;12.70;99.90;;;;;;5048085;28;20052;-86
2021/10/25 14:31:30;;;;;;;2.72;1.17;;;12.70;99.90;;;;;;5043108;28;20055;-86
2021/10/25 14:33:57;;;;;;;3.90;1.52;;;12.70;99.90;;;;;;5028357;28;20081;-86
2021/10/25 14:36:23;;;;;;;3.88;1.33;;;12.80;99.90;;;;;;5011969;28;20041;-86
2021/10/25 14:39:05;;;;;;;2.72;1.17;;;12.70;99.90;;;;;;5027445;28;20040;-86